Time;durP1;ratioP1;P1;durP2;ratioP2;P2;SDS_P1;SDS_P2;PMS_P1;PMS_P2;Temp;Humidity;BMP_temperature;BMP_pressure;BME280_temperature;BME280_humidity;BME280_pressure;Samples;Min_cycle;Max_cycle;Signal;HPM_P1;HPM_P2
2023/08/17 00:01:39;;;;;;;6.38;2.90;;;16.00;99.90;;;;;;5104291;28;20040;-59
2023/08/17 00:04:05;;;;;;;6.40;3.00;;;16.00;99.90;;;;;;5105490;28;20048;-58
2023/08/17 00:06:31;;;;;;;5.50;3.13;;;16.00;99.90;;;;;;5103239;28;20040;-59
2023/08/17 00:08:57;;;;;;;6.93;3.10;;;16.00;99.90;;;;;;5101109;28;20047;-58
2023/08/17 00:11:22;;;;;;;7.80;2.78;;;16.00;99.90;;;;;;5084966;28;20039;-57
2023/08/17 00:13:48;;;;;;;5.28;2.72;;;15.90;99.90;;;;;;5101799;28;20032;-58
2023/08/17 00:16:14;;;;;;;4.90;2.85;;;16.00;99.90;;;;;;5101386;28;20047;-57
2023/08/17 00:18:40;;;;;;;5.68;2.92;;;15.90;99.90;;;;;;5089404;28;20366;-53
2023/08/17 00:21:06;;;;;;;7.55;3.17;;;16.00;99.90;;;;;;5101804;28;20049;-57
2023/08/17 00:23:31;;;;;;;4.25;2.75;;;15.90;99.90;;;;;;5102770;28;20052;-58
2023/08/17 00:25:58;;;;;;;6.97;3.10;;;16.00;99.90;;;;;;5100618;28;20035;-56
2023/08/17 00:28:24;;;;;;;8.02;3.35;;;15.90;99.90;;;;;;5100603;28;20097;-57
2023/08/17 00:30:51;;;;;;;5.90;3.22;;;15.90;99.90;;;;;;5100544;28;20437;-57
2023/08/17 00:33:17;;;;;;;8.13;3.38;;;15.90;99.90;;;;;;5102079;28;20277;-58
2023/08/17 00:35:43;;;;;;;6.97;3.63;;;15.90;99.90;;;;;;5102170;28;20522;-52
2023/08/17 00:38:09;;;;;;;5.60;2.90;;;15.90;99.90;;;;;;5099135;28;20135;-58
2023/08/17 00:40:34;;;;;;;6.53;2.88;;;15.90;99.90;;;;;;5101796;28;20146;-58
2023/08/17 00:43:00;;;;;;;9.68;2.90;;;16.00;99.90;;;;;;5101014;28;20031;-58
2023/08/17 00:45:27;;;;;;;6.05;3.05;;;16.00;99.90;;;;;;5095439;28;20049;-58
2023/08/17 00:47:56;;;;;;;8.05;3.15;;;16.00;99.90;;;;;;5107385;27;20039;-58
2023/08/17 00:50:23;;;;;;;6.05;2.63;;;15.90;99.90;;;;;;5106689;28;20110;-58
2023/08/17 00:52:50;;;;;;;5.70;3.00;;;15.90;99.90;;;;;;5107573;28;20779;-57
2023/08/17 00:55:16;;;;;;;5.10;3.20;;;15.90;99.90;;;;;;5097186;28;20100;-55
2023/08/17 00:57:42;;;;;;;6.70;2.80;;;15.90;99.90;;;;;;5108669;28;20032;-58
2023/08/17 01:00:11;;;;;;;5.03;2.47;;;15.90;99.90;;;;;;5108601;27;20047;-55
2023/08/17 01:02:37;;;;;;;4.45;2.53;;;15.90;99.90;;;;;;5092003;28;20066;-57
2023/08/17 01:05:05;;;;;;;3.20;2.30;;;15.90;99.90;;;;;;5090919;28;20380;-58
2023/08/17 01:07:32;;;;;;;5.20;2.50;;;15.80;99.90;;;;;;5093907;28;20036;-57
2023/08/17 01:09:58;;;;;;;5.90;2.78;;;15.80;99.90;;;;;;5103238;27;20064;-57
2023/08/17 01:12:50;;;;;;;6.30;3.15;;;15.80;99.90;;;;;;5108330;28;20615;-57
2023/08/17 01:15:21;;;;;;;5.68;2.70;;;15.80;99.90;;;;;;5097921;28;20048;-56
2023/08/17 01:18:02;;;;;;;7.72;2.80;;;15.70;99.90;;;;;;5090653;27;20118;-56
2023/08/17 01:20:29;;;;;;;5.80;2.70;;;15.70;99.90;;;;;;5107850;28;20038;-58
2023/08/17 01:22:58;;;;;;;7.32;3.00;;;15.70;99.90;;;;;;5108695;27;20078;-58
2023/08/17 01:25:24;;;;;;;4.47;2.70;;;15.70;99.90;;;;;;5109979;27;20051;-58
2023/08/17 01:27:50;;;;;;;5.57;2.78;;;15.60;99.90;;;;;;5090236;28;20547;-58
2023/08/17 01:30:17;;;;;;;5.28;2.95;;;15.60;99.90;;;;;;5108654;27;20047;-58
2023/08/17 01:33:07;;;;;;;5.05;2.85;;;15.60;99.90;;;;;;5108227;28;20042;-57
2023/08/17 01:35:44;;;;;;;5.43;2.75;;;15.60;99.90;;;;;;5108054;27;20081;-58
2023/08/17 01:38:17;;;;;;;4.28;2.90;;;15.50;99.90;;;;;;5107243;28;20048;-58
2023/08/17 01:40:45;;;;;;;6.97;2.90;;;15.50;99.90;;;;;;5110185;27;20044;-59
2023/08/17 01:43:12;;;;;;;7.30;3.00;;;15.50;99.90;;;;;;5104440;28;20051;-58
2023/08/17 01:45:37;;;;;;;8.73;3.10;;;15.40;99.90;;;;;;5107045;27;20066;-56
2023/08/17 01:48:03;;;;;;;7.00;2.70;;;15.40;99.90;;;;;;5106383;27;20091;-58
2023/08/17 01:50:29;;;;;;;6.38;3.00;;;15.40;99.90;;;;;;5107508;28;20039;-56
2023/08/17 01:52:55;;;;;;;7.25;3.28;;;15.40;99.90;;;;;;5106973;27;20047;-55
2023/08/17 01:55:23;;;;;;;7.22;3.17;;;15.40;99.90;;;;;;5090058;28;20156;-56
2023/08/17 01:57:49;;;;;;;6.85;2.83;;;15.30;99.90;;;;;;5107263;27;20043;-58
2023/08/17 02:00:15;;;;;;;8.40;3.35;;;15.40;99.90;;;;;;5109338;27;20044;-58
2023/08/17 02:02:41;;;;;;;6.38;3.40;;;15.30;99.90;;;;;;5106310;27;20032;-57
2023/08/17 02:05:07;;;;;;;6.45;3.25;;;15.30;99.90;;;;;;5106505;27;20084;-58
2023/08/17 02:07:32;;;;;;;5.28;3.20;;;15.20;99.90;;;;;;5107893;28;20057;-56
2023/08/17 02:09:58;;;;;;;7.18;3.17;;;15.20;99.90;;;;;;5108310;27;20489;-58
2023/08/17 02:12:24;;;;;;;5.63;3.65;;;15.20;99.90;;;;;;5106534;28;20620;-57
2023/08/17 02:14:50;;;;;;;8.68;3.30;;;15.20;99.90;;;;;;5105741;28;20097;-57
2023/08/17 02:17:16;;;;;;;6.68;3.25;;;15.20;99.90;;;;;;5106796;27;20072;-57
2023/08/17 02:19:47;;;;;;;8.77;3.55;;;15.20;99.90;;;;;;5110884;28;20512;-58
2023/08/17 02:22:13;;;;;;;6.57;2.90;;;15.10;99.90;;;;;;5079397;28;20044;-59
2023/08/17 02:24:39;;;;;;;8.32;3.83;;;15.10;99.90;;;;;;5107724;28;20040;-59
2023/08/17 02:27:05;;;;;;;5.22;3.05;;;15.10;99.90;;;;;;5107343;27;20052;-58
2023/08/17 02:29:30;;;;;;;6.03;3.83;;;15.10;99.90;;;;;;5108535;27;20039;-58
2023/08/17 02:31:56;;;;;;;7.18;4.03;;;15.10;99.90;;;;;;5109975;27;20040;-57
2023/08/17 02:34:22;;;;;;;6.53;3.88;;;15.10;99.90;;;;;;5107094;27;20422;-58
2023/08/17 02:36:47;;;;;;;5.65;3.50;;;15.10;99.90;;;;;;5088727;28;20051;-57
2023/08/17 02:39:13;;;;;;;8.05;3.40;;;15.10;99.90;;;;;;5108004;28;20071;-56
2023/08/17 02:41:39;;;;;;;5.57;3.75;;;15.10;99.90;;;;;;5107518;28;20051;-55
2023/08/17 02:44:05;;;;;;;5.07;3.50;;;15.10;99.90;;;;;;5079451;28;20131;-54
2023/08/17 02:46:31;;;;;;;8.23;3.67;;;15.00;99.90;;;;;;5107698;27;20054;-57
2023/08/17 02:48:56;;;;;;;6.05;3.47;;;15.00;99.90;;;;;;5087583;28;20032;-57
2023/08/17 02:51:22;;;;;;;8.38;3.72;;;15.10;99.90;;;;;;5089871;28;20043;-58
2023/08/17 02:53:48;;;;;;;8.18;3.65;;;15.00;99.90;;;;;;5090492;28;20042;-57
2023/08/17 02:56:13;;;;;;;5.28;3.70;;;15.00;99.90;;;;;;5088283;28;20039;-58
2023/08/17 02:58:43;;;;;;;6.15;3.30;;;15.00;99.90;;;;;;5110259;27;20104;-58
2023/08/17 03:01:09;;;;;;;7.18;3.53;;;15.00;99.90;;;;;;5107775;27;20040;-56
2023/08/17 03:03:35;;;;;;;9.80;4.20;;;15.00;99.90;;;;;;5108810;28;20063;-57
2023/08/17 03:06:02;;;;;;;8.32;3.42;;;14.90;99.90;;;;;;5088867;28;20586;-56
2023/08/17 03:08:28;;;;;;;9.13;3.75;;;14.90;99.90;;;;;;5061251;28;20054;-57
2023/08/17 03:10:54;;;;;;;6.18;3.53;;;14.90;99.90;;;;;;5094696;28;20040;-58
2023/08/17 03:13:19;;;;;;;6.47;3.42;;;14.90;99.90;;;;;;5105655;27;20066;-58
2023/08/17 03:15:45;;;;;;;8.45;3.22;;;14.90;99.90;;;;;;5106578;27;20493;-57
2023/08/17 03:18:11;;;;;;;3.92;3.25;;;14.90;99.90;;;;;;5106281;28;20047;-58
2023/08/17 03:20:37;;;;;;;8.32;3.90;;;14.90;99.90;;;;;;5104654;28;20428;-56
2023/08/17 03:23:06;;;;;;;8.55;3.72;;;14.90;99.90;;;;;;5090087;28;20083;-58
2023/08/17 03:25:32;;;;;;;5.20;3.65;;;14.90;99.90;;;;;;5104834;28;20044;-58
2023/08/17 03:27:57;;;;;;;4.10;3.40;;;14.90;99.90;;;;;;5105029;28;20501;-58
2023/08/17 03:30:23;;;;;;;7.07;3.35;;;14.90;99.90;;;;;;5089638;28;20673;-59
2023/08/17 03:32:49;;;;;;;5.57;3.20;;;14.90;99.90;;;;;;5104178;28;20091;-56
2023/08/17 03:35:14;;;;;;;7.45;3.03;;;14.90;99.90;;;;;;5106395;28;20051;-58
2023/08/17 03:37:40;;;;;;;7.47;3.00;;;14.90;99.90;;;;;;5107596;28;20055;-57
2023/08/17 03:40:06;;;;;;;7.22;3.13;;;14.90;99.90;;;;;;5106568;28;20384;-59
2023/08/17 03:42:32;;;;;;;8.27;3.05;;;15.00;99.90;;;;;;5106389;28;20051;-55
2023/08/17 03:44:58;;;;;;;5.40;2.88;;;15.00;99.90;;;;;;5105768;28;20394;-59
2023/08/17 03:47:24;;;;;;;6.03;2.92;;;14.90;99.90;;;;;;5105511;28;20059;-58
2023/08/17 03:49:49;;;;;;;8.38;2.90;;;15.00;99.90;;;;;;5108843;28;20063;-56
2023/08/17 03:52:15;;;;;;;6.47;2.95;;;14.90;99.90;;;;;;5105412;28;20040;-59
2023/08/17 03:54:41;;;;;;;6.88;3.00;;;14.90;99.90;;;;;;5104837;28;20419;-59
2023/08/17 03:57:06;;;;;;;6.68;2.60;;;15.00;99.90;;;;;;5106244;28;20043;-58
2023/08/17 03:59:32;;;;;;;7.10;3.42;;;15.00;99.90;;;;;;5106133;28;20070;-55
2023/08/17 04:01:58;;;;;;;8.80;3.00;;;15.00;99.90;;;;;;5109409;28;20070;-59
2023/08/17 04:04:24;;;;;;;8.52;3.05;;;15.00;99.90;;;;;;5106269;28;20040;-56
2023/08/17 04:06:49;;;;;;;6.25;3.08;;;15.00;99.90;;;;;;5105445;28;20103;-58
2023/08/17 04:09:15;;;;;;;8.43;3.65;;;15.00;99.90;;;;;;5107121;28;20047;-57
2023/08/17 04:11:41;;;;;;;5.60;2.70;;;15.00;99.90;;;;;;5106725;28;20383;-58
2023/08/17 04:14:08;;;;;;;5.85;2.72;;;15.00;99.90;;;;;;5090262;28;20078;-57
2023/08/17 04:16:35;;;;;;;6.63;2.67;;;15.00;99.90;;;;;;5107198;28;20418;-58
2023/08/17 04:19:00;;;;;;;7.43;2.95;;;15.00;99.90;;;;;;5106086;28;20036;-58
2023/08/17 04:21:26;;;;;;;8.63;2.60;;;15.10;99.90;;;;;;5107072;28;20036;-56
2023/08/17 04:23:52;;;;;;;4.90;2.67;;;15.10;99.90;;;;;;5106318;28;20036;-58
2023/08/17 04:26:18;;;;;;;11.32;3.08;;;15.00;99.90;;;;;;5107754;28;20039;-56
2023/08/17 04:28:43;;;;;;;3.85;2.28;;;15.00;99.90;;;;;;5107507;28;20063;-57
2023/08/17 04:31:09;;;;;;;5.63;2.45;;;15.00;99.90;;;;;;5088304;28;20050;-59
2023/08/17 04:33:35;;;;;;;6.03;2.33;;;15.00;99.90;;;;;;5108093;28;20058;-57
2023/08/17 04:36:01;;;;;;;6.50;2.33;;;15.00;99.90;;;;;;5105738;28;20044;-58
2023/08/17 04:38:26;;;;;;;5.18;2.20;;;15.00;99.90;;;;;;5090002;28;20048;-56
2023/08/17 04:40:52;;;;;;;7.78;2.30;;;15.10;99.90;;;;;;5109147;28;20057;-59
2023/08/17 04:43:18;;;;;;;4.88;2.17;;;15.00;99.90;;;;;;5103503;28;20496;-57
2023/08/17 04:45:47;;;;;;;4.97;2.42;;;15.00;99.90;;;;;;5104127;28;20044;-58
2023/08/17 04:48:13;;;;;;;5.53;2.10;;;15.00;99.90;;;;;;5104771;28;20119;-57
2023/08/17 04:50:39;;;;;;;9.43;2.60;;;15.00;99.90;;;;;;5103369;28;20355;-58
2023/08/17 04:53:05;;;;;;;6.90;2.47;;;15.00;99.90;;;;;;5106720;28;20032;-59
2023/08/17 04:55:31;;;;;;;7.22;2.60;;;15.00;99.90;;;;;;5105091;28;20036;-58
2023/08/17 04:57:57;;;;;;;5.00;2.47;;;15.00;99.90;;;;;;5102810;28;20036;-53
2023/08/17 05:00:27;;;;;;;4.40;2.15;;;15.00;99.90;;;;;;5103568;28;20035;-56
2023/08/17 05:02:54;;;;;;;7.38;2.50;;;15.00;99.90;;;;;;5104376;28;20051;-58
2023/08/17 05:05:20;;;;;;;6.82;2.50;;;15.00;99.90;;;;;;5107151;28;20047;-57
2023/08/17 05:07:46;;;;;;;6.05;2.42;;;15.00;99.90;;;;;;5104956;28;20027;-57
2023/08/17 05:10:11;;;;;;;7.22;2.38;;;15.00;99.90;;;;;;5106219;28;20493;-57
2023/08/17 05:12:37;;;;;;;9.82;2.70;;;15.00;99.90;;;;;;5106221;28;20131;-57
2023/08/17 05:15:03;;;;;;;5.88;2.45;;;15.00;99.90;;;;;;5106636;28;20086;-57
2023/08/17 05:17:29;;;;;;;7.88;2.95;;;15.00;99.90;;;;;;5089344;28;20292;-57
2023/08/17 05:19:55;;;;;;;4.68;2.08;;;15.00;99.90;;;;;;5096439;28;20051;-59
2023/08/17 05:22:21;;;;;;;6.25;2.75;;;15.00;99.90;;;;;;5105982;28;20047;-58
2023/08/17 05:24:47;;;;;;;4.32;2.38;;;15.00;99.90;;;;;;5102419;28;20044;-58
2023/08/17 05:27:13;;;;;;;6.72;2.30;;;15.00;99.90;;;;;;5104162;28;20100;-59
2023/08/17 05:29:39;;;;;;;7.35;2.47;;;15.00;99.90;;;;;;5106221;28;20042;-58
2023/08/17 05:32:05;;;;;;;8.02;2.28;;;15.00;99.90;;;;;;5110235;27;20529;-57
2023/08/17 05:34:31;;;;;;;4.47;2.20;;;15.10;99.90;;;;;;5088908;28;20057;-57
2023/08/17 05:36:57;;;;;;;9.15;3.05;;;15.10;99.90;;;;;;5106028;27;20071;-58
2023/08/17 05:39:23;;;;;;;7.05;2.47;;;15.10;99.90;;;;;;5089154;28;20533;-58
2023/08/17 05:41:48;;;;;;;4.32;2.03;;;15.20;99.90;;;;;;5106725;28;20500;-58
2023/08/17 05:44:15;;;;;;;7.15;2.35;;;15.20;99.90;;;;;;5108487;27;20044;-58
2023/08/17 05:46:40;;;;;;;7.35;2.40;;;15.20;99.90;;;;;;5107883;28;20478;-58
2023/08/17 05:49:06;;;;;;;10.60;2.70;;;15.30;99.90;;;;;;5107960;27;20089;-59
2023/08/17 05:51:32;;;;;;;5.13;2.35;;;15.40;99.90;;;;;;5072815;28;20402;-58
2023/08/17 05:53:58;;;;;;;10.00;2.28;;;15.40;99.90;;;;;;5107351;27;20031;-55
2023/08/17 05:56:24;;;;;;;6.28;2.10;;;15.40;99.90;;;;;;5111507;27;20035;-55
2023/08/17 05:58:50;;;;;;;4.40;2.00;;;15.50;99.90;;;;;;5107575;28;20112;-56
2023/08/17 06:01:15;;;;;;;7.43;2.30;;;15.50;99.90;;;;;;5107373;27;20047;-59
2023/08/17 06:03:41;;;;;;;6.93;2.40;;;15.50;99.90;;;;;;5107441;27;20046;-58
2023/08/17 06:06:07;;;;;;;7.68;2.85;;;15.60;99.90;;;;;;5107557;28;20076;-59
2023/08/17 06:08:33;;;;;;;7.95;2.38;;;15.60;99.90;;;;;;5107922;28;20043;-59
2023/08/17 06:10:59;;;;;;;7.60;2.47;;;15.70;99.90;;;;;;5107516;28;20067;-59
2023/08/17 06:13:24;;;;;;;6.40;2.50;;;15.80;99.90;;;;;;5109769;28;20028;-58
2023/08/17 06:15:50;;;;;;;6.93;2.28;;;15.80;99.90;;;;;;5109055;28;20035;-58
2023/08/17 06:18:16;;;;;;;5.40;2.47;;;15.90;99.90;;;;;;5109195;27;20092;-56
2023/08/17 06:20:42;;;;;;;6.53;2.65;;;16.00;99.90;;;;;;5112615;27;20039;-56
2023/08/17 06:23:07;;;;;;;4.15;2.20;;;16.10;99.90;;;;;;5112222;27;20058;-57
2023/08/17 06:25:34;;;;;;;7.95;2.58;;;16.10;99.90;;;;;;5111278;27;20043;-58
2023/08/17 06:28:00;;;;;;;5.72;2.45;;;16.20;99.90;;;;;;5112066;27;20058;-57
2023/08/17 06:30:26;;;;;;;7.78;2.70;;;16.30;99.90;;;;;;5110633;27;20039;-58
2023/08/17 06:32:52;;;;;;;4.60;2.40;;;16.40;99.90;;;;;;5109924;28;20032;-58
2023/08/17 06:35:18;;;;;;;7.35;2.50;;;16.40;99.90;;;;;;5112418;27;20129;-59
2023/08/17 06:37:44;;;;;;;5.10;2.50;;;16.50;99.90;;;;;;5109286;27;20078;-58
2023/08/17 06:40:10;;;;;;;4.57;2.08;;;16.70;99.90;;;;;;5111896;27;20387;-59
2023/08/17 06:42:36;;;;;;;5.57;2.33;;;16.70;99.90;;;;;;5110061;27;20046;-58
2023/08/17 06:45:03;;;;;;;6.28;2.45;;;16.80;99.90;;;;;;5111580;28;20039;-56
2023/08/17 06:47:28;;;;;;;4.10;1.85;;;16.90;99.90;;;;;;5114092;27;20055;-55
2023/08/17 06:49:55;;;;;;;6.72;2.13;;;17.10;99.90;;;;;;5112314;28;20047;-59
2023/08/17 06:52:20;;;;;;;5.97;1.85;;;17.20;99.90;;;;;;5113914;27;20047;-57
2023/08/17 06:54:46;;;;;;;5.18;1.90;;;17.30;99.90;;;;;;5111925;28;20032;-59
2023/08/17 06:57:12;;;;;;;5.90;1.70;;;17.50;99.90;;;;;;5093198;28;20035;-58
2023/08/17 06:59:37;;;;;;;5.22;1.73;;;17.50;99.90;;;;;;5111743;28;20043;-57
2023/08/17 07:02:03;;;;;;;4.45;1.70;;;17.60;99.90;;;;;;5111545;28;20542;-58
2023/08/17 07:04:29;;;;;;;5.75;1.90;;;17.60;99.90;;;;;;5111783;27;20043;-58
2023/08/17 07:06:55;;;;;;;5.35;1.45;;;17.60;99.90;;;;;;5111583;28;20039;-54
2023/08/17 07:09:21;;;;;;;4.53;1.75;;;17.60;99.90;;;;;;5093396;28;20104;-58
2023/08/17 07:11:47;;;;;;;7.13;1.50;;;17.70;99.90;;;;;;5112010;27;20047;-56
2023/08/17 07:14:12;;;;;;;4.78;1.70;;;17.80;99.90;;;;;;5101591;28;20071;-59
2023/08/17 07:16:38;;;;;;;8.65;1.67;;;17.80;99.90;;;;;;5094457;28;20047;-58
2023/08/17 07:19:04;;;;;;;4.72;1.58;;;17.90;99.90;;;;;;5100312;28;20036;-58
2023/08/17 07:21:30;;;;;;;7.45;1.60;;;17.90;99.90;;;;;;5110849;27;20050;-58
2023/08/17 07:23:55;;;;;;;7.20;1.60;;;17.90;99.90;;;;;;5112366;28;20057;-58
2023/08/17 07:26:22;;;;;;;3.00;1.45;;;17.90;99.90;;;;;;5113657;27;20040;-59
2023/08/17 07:28:48;;;;;;;4.28;1.40;;;17.80;99.90;;;;;;5109174;28;20066;-57
2023/08/17 07:31:14;;;;;;;6.18;1.90;;;17.80;99.90;;;;;;5111310;28;20040;-58
2023/08/17 07:33:40;;;;;;;8.57;1.85;;;17.70;99.90;;;;;;5111956;27;20031;-59
2023/08/17 07:36:07;;;;;;;4.38;1.45;;;17.70;99.90;;;;;;5110524;28;20052;-58
2023/08/17 07:38:33;;;;;;;6.97;1.60;;;17.80;99.90;;;;;;5113680;28;20089;-58
2023/08/17 07:40:59;;;;;;;4.47;1.50;;;17.80;99.90;;;;;;5112593;27;20108;-58
2023/08/17 07:43:24;;;;;;;4.75;1.50;;;18.00;99.90;;;;;;5110274;28;20090;-57
2023/08/17 07:45:57;;;;;;;4.20;1.35;;;18.10;99.90;;;;;;5098497;28;20047;-55
2023/08/17 07:48:23;;;;;;;3.60;1.33;;;18.30;99.90;;;;;;5108512;28;20032;-58
2023/08/17 07:50:50;;;;;;;4.15;1.63;;;18.40;99.90;;;;;;5108805;28;20180;-56
2023/08/17 07:53:16;;;;;;;4.03;1.25;;;18.50;99.90;;;;;;5090784;28;20035;-57
2023/08/17 07:55:42;;;;;;;4.68;1.40;;;18.60;99.90;;;;;;5091867;28;20028;-57
2023/08/17 07:58:08;;;;;;;3.13;1.45;;;18.60;99.90;;;;;;5089273;28;20051;-59
2023/08/17 08:00:33;;;;;;;3.22;1.40;;;18.60;99.90;;;;;;5107719;27;20043;-59
2023/08/17 08:02:59;;;;;;;4.15;1.52;;;18.60;99.90;;;;;;5098629;28;20073;-56
2023/08/17 08:05:25;;;;;;;6.20;1.73;;;18.60;99.90;;;;;;5108268;28;20035;-58
2023/08/17 08:07:51;;;;;;;3.92;1.40;;;18.60;99.90;;;;;;5107835;28;20066;-59
2023/08/17 08:10:17;;;;;;;2.03;1.10;;;18.60;99.90;;;;;;5096185;28;20135;-56
2023/08/17 08:12:43;;;;;;;7.05;1.73;;;18.70;99.90;;;;;;5088481;28;20036;-59
2023/08/17 08:15:09;;;;;;;5.95;1.20;;;18.90;99.90;;;;;;5106892;28;20562;-56
2023/08/17 08:17:35;;;;;;;5.05;1.48;;;19.10;99.90;;;;;;5109039;28;20088;-58
2023/08/17 08:20:01;;;;;;;5.18;1.27;;;19.30;99.90;;;;;;5106275;28;20369;-59
2023/08/17 08:22:27;;;;;;;5.75;1.20;;;19.50;99.90;;;;;;5106897;28;20054;-59
2023/08/17 08:24:53;;;;;;;5.90;1.20;;;19.50;99.90;;;;;;5103990;28;20387;-58
2023/08/17 08:27:19;;;;;;;3.13;1.20;;;19.50;99.90;;;;;;5104519;28;20608;-59
2023/08/17 08:29:45;;;;;;;5.00;1.10;;;19.50;99.90;;;;;;5107958;28;20047;-58
2023/08/17 08:32:11;;;;;;;5.43;1.10;;;19.50;99.90;;;;;;5105949;28;20043;-57
2023/08/17 08:34:36;;;;;;;3.35;0.95;;;19.50;99.90;;;;;;5103333;28;20088;-58
2023/08/17 08:37:02;;;;;;;3.55;1.20;;;19.50;99.90;;;;;;5104179;28;20056;-57
2023/08/17 08:39:28;;;;;;;5.20;1.17;;;19.50;99.90;;;;;;5104869;28;20044;-59
2023/08/17 08:41:55;;;;;;;5.18;1.35;;;19.60;99.90;;;;;;5107573;28;20059;-59
2023/08/17 08:44:21;;;;;;;4.50;1.20;;;19.60;99.90;;;;;;5107883;28;20097;-59
2023/08/17 08:46:48;;;;;;;2.78;1.05;;;19.60;99.90;;;;;;5107781;28;20060;-58
2023/08/17 08:49:19;;;;;;;5.13;1.17;;;19.60;99.90;;;;;;5096294;28;20035;-57
2023/08/17 08:51:50;;;;;;;5.25;1.38;;;19.60;99.90;;;;;;5108270;28;20087;-59
2023/08/17 08:54:20;;;;;;;5.18;1.20;;;19.60;99.90;;;;;;5105278;28;20036;-56
2023/08/17 08:56:50;;;;;;;4.00;1.40;;;19.60;99.90;;;;;;5108610;28;20028;-59
2023/08/17 08:59:17;;;;;;;4.13;1.20;;;19.50;99.90;;;;;;5108239;28;20043;-58
2023/08/17 09:01:42;;;;;;;4.43;1.40;;;19.40;99.90;;;;;;5110991;28;20040;-59
2023/08/17 09:04:09;;;;;;;3.35;1.50;;;19.30;99.90;;;;;;5109453;28;20036;-59
2023/08/17 09:06:36;;;;;;;4.32;1.20;;;19.30;99.90;;;;;;5099836;28;20044;-57
2023/08/17 09:09:02;;;;;;;3.00;1.30;;;19.20;99.90;;;;;;5112527;28;20039;-59
2023/08/17 09:11:28;;;;;;;4.28;1.20;;;19.20;99.90;;;;;;5113816;27;20047;-57
2023/08/17 09:13:54;;;;;;;4.88;1.35;;;19.20;99.90;;;;;;5109402;28;20046;-57
2023/08/17 09:16:20;;;;;;;4.25;1.30;;;19.30;99.90;;;;;;5110815;28;20477;-55
2023/08/17 09:18:46;;;;;;;4.97;1.17;;;19.40;99.90;;;;;;5108704;27;20050;-58
2023/08/17 09:21:25;;;;;;;2.65;1.25;;;19.60;99.90;;;;;;5111073;27;20039;-58
2023/08/17 09:23:55;;;;;;;3.38;1.08;;;19.90;99.90;;;;;;5112649;28;20148;-61
2023/08/17 09:26:24;;;;;;;5.90;1.40;;;20.20;99.90;;;;;;5109827;28;20082;-57
2023/08/17 09:28:56;;;;;;;5.38;1.30;;;20.40;99.90;;;;;;5110814;27;20039;-59
2023/08/17 09:31:24;;;;;;;6.20;1.35;;;20.40;99.90;;;;;;5099644;28;20147;-59
2023/08/17 09:33:50;;;;;;;5.88;1.23;;;20.30;99.90;;;;;;5111617;28;20057;-58
2023/08/17 09:36:24;;;;;;;3.90;1.17;;;20.20;99.90;;;;;;5109558;27;20619;-58
2023/08/17 09:38:53;;;;;;;3.78;1.00;;;20.20;99.90;;;;;;5113417;28;20065;-59
2023/08/17 09:41:19;;;;;;;3.80;1.27;;;20.30;99.90;;;;;;5110547;27;20039;-58
2023/08/17 09:43:48;;;;;;;2.67;1.00;;;20.40;99.90;;;;;;5110188;27;20059;-58
2023/08/17 09:46:14;;;;;;;5.63;1.50;;;20.50;99.90;;;;;;5111960;27;20047;-59
2023/08/17 09:48:44;;;;;;;2.15;0.90;;;20.60;99.90;;;;;;5111634;27;20568;-56
2023/08/17 09:51:10;;;;;;;3.13;1.02;;;20.70;99.90;;;;;;5113132;28;20024;-59
2023/08/17 09:53:39;;;;;;;4.07;1.23;;;20.90;99.90;;;;;;5112256;27;20050;-59
2023/08/17 09:56:10;;;;;;;3.90;1.38;;;20.90;99.90;;;;;;5111432;28;20040;-58
2023/08/17 09:58:37;;;;;;;6.38;1.55;;;21.00;99.90;;;;;;5112597;28;20039;-56
2023/08/17 10:01:05;;;;;;;9.05;1.77;;;21.10;99.90;;;;;;5110584;27;20044;-58
2023/08/17 10:03:35;;;;;;;4.30;1.23;;;21.10;99.90;;;;;;5109773;28;20123;-58
2023/08/17 10:06:10;;;;;;;2.45;1.30;;;21.20;99.90;;;;;;5112466;27;20483;-57
2023/08/17 10:08:52;;;;;;;3.50;1.15;;;21.30;99.90;;;;;;5110768;27;20666;-57
2023/08/17 10:11:19;;;;;;;5.65;1.25;;;21.40;99.90;;;;;;5112585;27;20427;-59
2023/08/17 10:13:52;;;;;;;3.90;1.23;;;21.40;99.90;;;;;;5111622;28;20083;-59
2023/08/17 10:16:33;;;;;;;4.75;1.42;;;21.60;99.90;;;;;;5108740;28;20097;-60
2023/08/17 10:19:28;;;;;;;5.45;1.65;;;21.70;99.90;;;;;;5093555;28;20173;-60
2023/08/17 10:22:04;;;;;;;5.10;1.40;;;21.90;99.90;;;;;;5099128;28;20061;-60
2023/08/17 10:24:35;;;;;;;3.92;1.20;;;22.00;99.90;;;;;;5108358;27;20091;-54
2023/08/17 10:27:03;;;;;;;6.00;1.25;;;21.90;99.90;;;;;;5109874;27;20032;-59
2023/08/17 10:29:29;;;;;;;3.80;1.15;;;21.70;99.90;;;;;;5111391;27;20044;-60
2023/08/17 10:31:55;;;;;;;6.07;1.30;;;21.60;99.90;;;;;;5110666;27;20481;-61
2023/08/17 10:34:21;;;;;;;2.55;1.10;;;21.40;99.90;;;;;;5110705;28;20040;-59
2023/08/17 10:36:48;;;;;;;4.93;1.20;;;21.20;99.90;;;;;;5111400;27;20324;-58
2023/08/17 10:39:25;;;;;;;7.25;1.30;;;21.10;99.90;;;;;;5112020;28;20115;-59
2023/08/17 10:41:52;;;;;;;4.82;1.85;;;21.10;99.90;;;;;;5112629;28;20036;-58
2023/08/17 10:44:37;;;;;;;3.60;1.42;;;21.00;99.90;;;;;;5110292;28;20383;-59
2023/08/17 10:47:25;;;;;;;5.45;1.38;;;21.00;99.90;;;;;;5110772;27;20039;-59
2023/08/17 10:49:52;;;;;;;3.75;1.30;;;21.00;99.90;;;;;;5080195;28;20047;-59
2023/08/17 10:52:30;;;;;;;4.32;1.30;;;21.00;99.90;;;;;;5091375;28;20036;-59
2023/08/17 10:54:56;;;;;;;7.07;1.73;;;21.20;99.90;;;;;;5095430;28;20031;-56
2023/08/17 10:57:29;;;;;;;4.63;1.20;;;21.20;99.90;;;;;;5088878;28;20177;-55
2023/08/17 11:00:10;;;;;;;3.60;1.40;;;21.30;99.90;;;;;;5109612;28;20028;-59
2023/08/17 11:02:37;;;;;;;6.10;1.60;;;21.40;99.90;;;;;;5107306;28;20065;-58
2023/08/17 11:05:04;;;;;;;5.93;1.58;;;21.40;99.90;;;;;;5090901;28;20048;-58
2023/08/17 11:07:43;;;;;;;7.03;1.60;;;21.50;99.90;;;;;;5088373;28;20054;-58
2023/08/17 11:10:31;;;;;;;6.70;1.63;;;21.80;99.90;;;;;;5108401;27;20052;-59
2023/08/17 11:13:01;;;;;;;7.55;1.30;;;21.90;99.90;;;;;;5106761;27;20038;-60
2023/08/17 11:15:39;;;;;;;4.75;1.50;;;21.90;99.90;;;;;;5107667;27;20057;-59
2023/08/17 11:18:07;;;;;;;4.65;1.40;;;22.00;99.90;;;;;;5106702;28;20079;-58
2023/08/17 11:20:33;;;;;;;5.60;1.33;;;21.90;99.90;;;;;;5104060;27;20054;-59
2023/08/17 11:22:59;;;;;;;6.45;1.52;;;22.00;99.90;;;;;;5103791;28;20075;-59
2023/08/17 11:25:27;;;;;;;4.18;1.20;;;22.00;99.90;;;;;;5103994;28;20074;-59
2023/08/17 11:27:56;;;;;;;6.57;1.23;;;22.10;99.90;;;;;;5103685;28;20040;-56
2023/08/17 11:30:22;;;;;;;4.13;1.50;;;22.20;99.90;;;;;;5108195;27;20091;-59
2023/08/17 11:32:52;;;;;;;5.47;1.58;;;22.30;99.90;;;;;;5104395;27;20042;-60
2023/08/17 11:35:19;;;;;;;5.78;1.40;;;22.30;99.90;;;;;;5104373;28;20051;-59
2023/08/17 11:37:45;;;;;;;7.78;1.60;;;22.20;99.90;;;;;;5103118;28;20085;-60
2023/08/17 11:40:11;;;;;;;5.22;1.50;;;22.20;99.90;;;;;;5104224;28;20039;-57
2023/08/17 11:42:37;;;;;;;4.47;1.60;;;22.30;99.90;;;;;;5105857;27;20039;-59
2023/08/17 11:45:05;;;;;;;7.18;1.60;;;22.30;99.90;;;;;;5106884;28;20155;-59
2023/08/17 11:47:32;;;;;;;5.35;1.83;;;22.30;99.90;;;;;;5085853;28;20036;-56
2023/08/17 11:50:01;;;;;;;11.85;2.15;;;22.30;99.90;;;;;;5104870;28;20159;-58
2023/08/17 11:52:29;;;;;;;4.30;1.65;;;22.30;99.90;;;;;;5102813;27;20035;-58
2023/08/17 11:54:57;;;;;;;3.20;1.50;;;22.50;99.90;;;;;;5102777;28;20673;-60
2023/08/17 11:57:23;;;;;;;5.97;1.90;;;22.60;99.90;;;;;;5107221;28;20093;-60
2023/08/17 11:59:55;;;;;;;4.22;1.58;;;22.70;99.90;;;;;;5105278;27;20044;-60
2023/08/17 12:02:23;;;;;;;;;;;22.80;99.90;;;;;;5104050;28;20050;-60
2023/08/17 12:04:49;;;;;;;8.40;1.80;;;22.70;99.90;;;;;;5106386;27;19924;-58
2023/08/17 12:07:16;;;;;;;4.63;1.45;;;22.70;99.90;;;;;;5102913;28;20035;-59
2023/08/17 12:09:44;;;;;;;5.90;1.70;;;22.80;99.90;;;;;;5092345;28;20054;-59
2023/08/17 12:12:10;;;;;;;6.78;2.10;;;22.80;99.90;;;;;;5107450;28;20054;-60
2023/08/17 12:14:36;;;;;;;4.60;1.70;;;22.70;99.90;;;;;;5088204;28;20039;-59
2023/08/17 12:17:02;;;;;;;3.17;1.60;;;22.60;99.90;;;;;;5104210;28;20036;-59
2023/08/17 12:19:29;;;;;;;6.85;1.90;;;22.70;99.90;;;;;;5102716;28;20409;-59
2023/08/17 12:21:57;;;;;;;5.20;1.70;;;22.80;99.90;;;;;;5091283;28;20039;-59
2023/08/17 12:24:26;;;;;;;8.32;1.95;;;23.00;99.90;;;;;;5089052;28;20056;-59
2023/08/17 12:26:56;;;;;;;4.60;1.48;;;23.00;99.90;;;;;;5103892;28;20381;-59
2023/08/17 12:29:22;;;;;;;4.20;1.83;;;22.80;99.90;;;;;;5103850;28;20032;-59
2023/08/17 12:31:48;;;;;;;8.15;2.17;;;22.70;99.90;;;;;;5106628;28;20032;-60
2023/08/17 12:34:13;;;;;;;5.50;1.88;;;22.60;99.90;;;;;;5105662;28;20020;-60
2023/08/17 12:36:42;;;;;;;4.85;1.70;;;22.50;99.90;;;;;;5104621;28;20083;-60
2023/08/17 12:39:08;;;;;;;6.45;1.85;;;22.40;99.90;;;;;;5109202;28;20036;-59
2023/08/17 12:41:34;;;;;;;5.90;1.77;;;22.40;99.90;;;;;;5110330;27;20345;-59
2023/08/17 12:44:00;;;;;;;3.53;2.03;;;22.40;99.90;;;;;;5108705;27;20043;-60
2023/08/17 12:46:26;;;;;;;7.97;1.77;;;22.40;99.90;;;;;;5110446;27;20047;-59
2023/08/17 12:48:52;;;;;;;4.57;1.70;;;22.30;99.90;;;;;;5108335;27;20041;-58